createdAt,value
2016-10-26T00:01:08.465Z,0
2016-10-26T00:02:21.972Z,0
2016-10-26T00:03:35.014Z,0
2016-10-26T00:04:48.616Z,0
2016-10-26T00:06:02.158Z,0
2016-10-26T00:07:15.285Z,0
2016-10-26T00:08:28.856Z,0
2016-10-26T00:09:42.488Z,0
2016-10-26T00:10:56.095Z,0
2016-10-26T00:12:09.203Z,0
2016-10-26T00:13:22.242Z,0
2016-10-26T00:14:35.881Z,0
2016-10-26T00:15:49.487Z,0
2016-10-26T00:17:02.634Z,0
2016-10-26T00:18:15.736Z,0
2016-10-26T00:19:28.237Z,0
2016-10-26T00:20:40.726Z,0
2016-10-26T00:21:54.034Z,0
2016-10-26T00:23:07.194Z,0
2016-10-26T00:24:20.779Z,0
2016-10-26T00:25:34.607Z,0
2016-10-26T00:26:47.774Z,0
2016-10-26T00:28:01.724Z,0
2016-10-26T00:29:15.288Z,0
2016-10-26T00:30:28.334Z,0
2016-10-26T00:31:41.838Z,0
2016-10-26T00:32:55.503Z,0
2016-10-26T00:34:09.064Z,0
2016-10-26T00:35:22.162Z,0
2016-10-26T00:36:35.762Z,0
2016-10-26T00:37:49.333Z,0
2016-10-26T00:39:02.937Z,0
2016-10-26T00:40:16.543Z,0
2016-10-26T00:41:30.281Z,0
2016-10-26T00:42:43.562Z,0
2016-10-26T00:43:56.852Z,0
2016-10-26T00:45:10.408Z,0
2016-10-26T00:46:24.392Z,0
2016-10-26T00:47:37.948Z,0
2016-10-26T00:48:51.387Z,0
2016-10-26T00:50:05.007Z,0
2016-10-26T00:51:18.614Z,0
2016-10-26T00:52:31.674Z,0
2016-10-26T00:53:45.231Z,0
2016-10-26T00:54:58.301Z,0
2016-10-26T00:56:11.385Z,0
2016-10-26T00:57:24.885Z,0
2016-10-26T00:58:38.514Z,0
2016-10-26T00:59:52.131Z,0
2016-10-26T01:01:05.729Z,0
2016-10-26T01:02:19.280Z,0
2016-10-26T01:03:32.838Z,0
2016-10-26T01:04:46.424Z,0
2016-10-26T01:05:59.700Z,0
2016-10-26T01:07:13.240Z,0
2016-10-26T01:08:26.788Z,0
2016-10-26T01:09:40.054Z,0
2016-10-26T01:10:53.664Z,0
2016-10-26T01:12:07.137Z,0
2016-10-26T01:13:20.685Z,0
2016-10-26T01:14:34.217Z,0
2016-10-26T01:15:47.844Z,0
2016-10-26T01:17:01.342Z,0
2016-10-26T01:18:14.972Z,0
2016-10-26T01:19:28.007Z,0
2016-10-26T01:20:41.551Z,0
2016-10-26T01:21:55.131Z,0
2016-10-26T01:23:08.742Z,0
2016-10-26T01:24:22.413Z,0
2016-10-26T01:25:35.415Z,0
2016-10-26T01:26:49.034Z,0
2016-10-26T01:28:02.621Z,0
2016-10-26T01:29:16.145Z,0
2016-10-26T01:30:29.698Z,0
2016-10-26T01:31:43.306Z,0
2016-10-26T01:32:56.414Z,0
2016-10-26T01:34:10.046Z,0
2016-10-26T01:35:23.563Z,0
2016-10-26T01:36:37.164Z,0
2016-10-26T01:37:50.730Z,0
2016-10-26T01:39:04.295Z,0
2016-10-26T01:40:18.221Z,0
2016-10-26T01:41:31.765Z,0
2016-10-26T01:42:45.348Z,0
2016-10-26T01:43:58.402Z,0
2016-10-26T01:45:11.987Z,0
2016-10-26T01:46:25.579Z,0
2016-10-26T01:47:39.240Z,0
2016-10-26T01:48:52.347Z,0
2016-10-26T01:50:05.912Z,0
2016-10-26T01:51:19.561Z,0
2016-10-26T01:52:33.178Z,0
2016-10-26T01:53:46.231Z,0
2016-10-26T01:54:58.805Z,0
2016-10-26T01:56:12.346Z,0
2016-10-26T01:57:25.365Z,0
2016-10-26T01:58:38.931Z,0
2016-10-26T01:59:52.474Z,0
2016-10-26T02:01:06.004Z,0
2016-10-26T02:02:19.629Z,0
2016-10-26T02:03:32.684Z,0
2016-10-26T02:04:46.262Z,0
2016-10-26T02:05:59.286Z,0
2016-10-26T02:07:12.442Z,0
2016-10-26T02:08:26.011Z,0
2016-10-26T02:09:39.609Z,0
2016-10-26T02:10:53.141Z,0
2016-10-26T02:12:06.730Z,0
2016-10-26T02:13:19.741Z,0
2016-10-26T02:14:33.005Z,0
2016-10-26T02:15:50.574Z,0
2016-10-26T02:17:06.111Z,0
2016-10-26T02:18:19.256Z,0
2016-10-26T02:19:32.540Z,0
2016-10-26T02:20:46.086Z,0
2016-10-26T02:21:59.692Z,0
2016-10-26T02:23:13.264Z,0
2016-10-26T02:24:26.342Z,0
2016-10-26T02:25:39.655Z,0
2016-10-26T02:26:53.196Z,0
2016-10-26T02:28:06.769Z,0
2016-10-26T02:29:19.838Z,0
2016-10-26T02:30:32.850Z,0
2016-10-26T02:31:46.402Z,0
2016-10-26T02:32:59.454Z,0
2016-10-26T02:34:12.474Z,0
2016-10-26T02:35:26.091Z,0
2016-10-26T02:36:39.672Z,0
2016-10-26T02:37:52.751Z,0
2016-10-26T02:39:06.048Z,0
2016-10-26T02:40:19.599Z,0
2016-10-26T02:41:33.313Z,0
2016-10-26T02:42:46.877Z,0
2016-10-26T02:44:00.544Z,0
2016-10-26T02:45:13.630Z,0
2016-10-26T02:46:27.495Z,0
2016-10-26T02:47:40.626Z,0
2016-10-26T02:48:53.681Z,0
2016-10-26T02:50:07.212Z,0
2016-10-26T02:51:20.233Z,0
2016-10-26T02:52:33.825Z,0
2016-10-26T02:53:46.819Z,0
2016-10-26T02:54:59.550Z,0
2016-10-26T02:56:12.029Z,0
2016-10-26T02:57:25.834Z,0
2016-10-26T02:58:39.433Z,0
2016-10-26T02:59:53.033Z,0
2016-10-26T03:01:06.100Z,0
2016-10-26T03:02:19.798Z,0
2016-10-26T03:03:33.516Z,0
2016-10-26T03:04:46.550Z,0
2016-10-26T03:06:00.570Z,0
2016-10-26T03:07:13.156Z,0
2016-10-26T03:08:26.280Z,0
2016-10-26T03:09:39.691Z,0
2016-10-26T03:10:53.279Z,0
2016-10-26T03:12:05.501Z,0
2016-10-26T03:13:19.179Z,0
2016-10-26T03:14:32.797Z,0
2016-10-26T03:15:46.417Z,0
2016-10-26T03:16:59.635Z,0
2016-10-26T03:18:12.664Z,0
2016-10-26T03:19:25.754Z,0
2016-10-26T03:20:38.757Z,0
2016-10-26T03:21:51.762Z,0
2016-10-26T03:23:05.287Z,0
2016-10-26T03:24:18.890Z,0
2016-10-26T03:25:32.501Z,0
2016-10-26T03:26:46.158Z,0
2016-10-26T03:27:59.191Z,0
2016-10-26T03:29:12.812Z,0
2016-10-26T03:30:26.387Z,0
2016-10-26T03:31:39.940Z,0
2016-10-26T03:32:53.428Z,0
2016-10-26T03:34:06.492Z,0
2016-10-26T03:35:20.041Z,0
2016-10-26T03:36:33.030Z,0
2016-10-26T03:37:46.685Z,0
2016-10-26T03:39:00.573Z,0
2016-10-26T03:40:13.701Z,0
2016-10-26T03:41:27.486Z,0
2016-10-26T03:42:41.070Z,0
2016-10-26T03:43:54.351Z,0
2016-10-26T03:45:07.921Z,0
2016-10-26T03:46:21.294Z,0
2016-10-26T03:47:34.861Z,0
2016-10-26T03:48:48.483Z,0
2016-10-26T03:50:01.541Z,0
2016-10-26T03:51:14.313Z,0
2016-10-26T03:52:27.929Z,0
2016-10-26T03:53:40.944Z,0
2016-10-26T03:54:54.562Z,0
2016-10-26T03:56:07.590Z,0
2016-10-26T03:57:21.255Z,0
2016-10-26T03:58:33.778Z,0
2016-10-26T03:59:47.301Z,0
2016-10-26T04:01:00.813Z,0
2016-10-26T04:02:13.891Z,0
2016-10-26T04:03:27.477Z,0
2016-10-26T04:04:40.994Z,0
2016-10-26T04:05:54.573Z,0
2016-10-26T04:07:08.199Z,0
2016-10-26T04:08:21.833Z,0
2016-10-26T04:09:35.401Z,0
2016-10-26T04:10:48.480Z,0
2016-10-26T04:12:01.843Z,0
2016-10-26T04:13:15.368Z,0
2016-10-26T04:14:29.059Z,0
2016-10-26T04:15:41.814Z,0
2016-10-26T04:16:54.880Z,0
2016-10-26T04:18:08.401Z,0
2016-10-26T04:19:21.968Z,0
2016-10-26T04:20:35.521Z,0
2016-10-26T04:21:49.126Z,0
2016-10-26T04:23:01.594Z,0
2016-10-26T04:24:15.106Z,0
2016-10-26T04:25:28.715Z,0
2016-10-26T04:26:42.306Z,0
2016-10-26T04:27:55.938Z,0
2016-10-26T04:29:09.514Z,0
2016-10-26T04:30:22.047Z,0
2016-10-26T04:31:35.074Z,0
2016-10-26T04:32:48.097Z,0
2016-10-26T04:34:01.367Z,0
2016-10-26T04:35:13.896Z,0
2016-10-26T04:36:27.543Z,0
2016-10-26T04:37:41.194Z,0
2016-10-26T04:38:54.423Z,0
2016-10-26T04:40:07.489Z,0
2016-10-26T04:41:21.267Z,0
2016-10-26T04:42:34.860Z,0
2016-10-26T04:43:48.464Z,0
2016-10-26T04:45:02.005Z,0
2016-10-26T04:46:15.546Z,0
2016-10-26T04:47:28.606Z,0
2016-10-26T04:48:42.184Z,0
2016-10-26T04:49:55.766Z,0
2016-10-26T04:51:09.329Z,0
2016-10-26T04:52:22.939Z,0
2016-10-26T04:53:36.509Z,0
2016-10-26T04:54:50.071Z,0
2016-10-26T04:56:03.237Z,0
2016-10-26T04:57:16.315Z,0
2016-10-26T04:58:29.355Z,0
2016-10-26T04:59:42.409Z,0
2016-10-26T05:00:55.471Z,0
2016-10-26T05:02:09.107Z,0
2016-10-26T05:03:22.714Z,0
2016-10-26T05:04:36.248Z,0
2016-10-26T05:05:49.819Z,0
2016-10-26T05:07:03.552Z,0
2016-10-26T05:08:17.088Z,0
2016-10-26T05:09:30.704Z,0
2016-10-26T05:10:44.339Z,0
2016-10-26T05:11:57.506Z,0
2016-10-26T05:13:10.046Z,0
2016-10-26T05:14:23.544Z,0
2016-10-26T05:15:36.577Z,0
2016-10-26T05:16:50.165Z,0
2016-10-26T05:18:02.631Z,0
2016-10-26T05:19:16.239Z,0
2016-10-26T05:20:29.299Z,0
2016-10-26T05:21:42.316Z,0
2016-10-26T05:22:55.534Z,0
2016-10-26T05:24:09.133Z,0
2016-10-26T05:25:21.630Z,0
2016-10-26T05:26:34.685Z,0
2016-10-26T05:27:47.977Z,0
2016-10-26T05:29:01.282Z,0
2016-10-26T05:30:14.882Z,0
2016-10-26T05:31:28.432Z,0
2016-10-26T05:32:42.082Z,0
2016-10-26T05:33:55.662Z,0
2016-10-26T05:35:09.252Z,0
2016-10-26T05:36:22.764Z,0
2016-10-26T05:37:36.377Z,0
2016-10-26T05:38:49.396Z,0
2016-10-26T05:40:02.942Z,0
2016-10-26T05:41:16.523Z,0
2016-10-26T05:42:30.065Z,0
2016-10-26T05:43:43.162Z,0
2016-10-26T05:44:55.472Z,0
2016-10-26T05:46:08.795Z,0
2016-10-26T05:47:21.903Z,0
2016-10-26T05:48:34.952Z,0
2016-10-26T05:49:48.494Z,0
2016-10-26T05:51:01.568Z,0
2016-10-26T05:52:15.141Z,0
2016-10-26T05:53:28.731Z,0
2016-10-26T05:54:42.291Z,0
2016-10-26T05:55:55.857Z,0
2016-10-26T05:57:09.407Z,0
2016-10-26T05:58:22.463Z,0
2016-10-26T05:59:36.114Z,0
2016-10-26T06:00:49.735Z,0
2016-10-26T06:02:02.786Z,0
2016-10-26T06:03:15.782Z,0
2016-10-26T06:04:29.346Z,0
2016-10-26T06:05:41.297Z,0
2016-10-26T06:06:54.421Z,0
2016-10-26T06:08:08.026Z,0
2016-10-26T06:09:20.997Z,0
2016-10-26T06:10:34.894Z,0
2016-10-26T06:11:48.439Z,0
2016-10-26T06:13:01.911Z,0
2016-10-26T06:14:15.515Z,0
2016-10-26T06:15:29.037Z,0
2016-10-26T06:16:42.635Z,0
2016-10-26T06:17:56.215Z,0
2016-10-26T06:19:09.823Z,0
2016-10-26T06:20:23.338Z,0
2016-10-26T06:21:36.878Z,0
2016-10-26T06:22:49.896Z,0
2016-10-26T06:24:03.659Z,0
2016-10-26T06:25:17.317Z,0
2016-10-26T06:26:30.898Z,0
2016-10-26T06:27:43.972Z,0
2016-10-26T06:28:57.541Z,0
2016-10-26T06:30:11.156Z,0
2016-10-26T06:31:24.782Z,0
2016-10-26T06:32:37.356Z,0
2016-10-26T06:33:50.996Z,0
2016-10-26T06:35:04.354Z,0
2016-10-26T06:36:17.392Z,0
2016-10-26T06:37:30.440Z,0
2016-10-26T06:38:44.089Z,0
2016-10-26T06:39:57.147Z,0
2016-10-26T06:41:10.207Z,0
2016-10-26T06:42:23.739Z,0
2016-10-26T06:43:37.317Z,0
2016-10-26T06:44:50.901Z,0
2016-10-26T06:46:04.534Z,0
2016-10-26T06:47:18.136Z,0
2016-10-26T06:48:31.817Z,0
2016-10-26T06:49:45.179Z,0
2016-10-26T06:50:58.226Z,0
2016-10-26T06:52:11.788Z,0
2016-10-26T06:53:25.204Z,0
2016-10-26T06:54:38.797Z,0
2016-10-26T06:55:52.304Z,0
2016-10-26T06:57:05.932Z,0
2016-10-26T06:58:19.465Z,0
2016-10-26T06:59:33.036Z,0
2016-10-26T07:00:46.074Z,0
2016-10-26T07:01:59.123Z,0
2016-10-26T07:03:12.773Z,0
2016-10-26T07:04:25.824Z,0
2016-10-26T07:05:39.369Z,0
2016-10-26T07:06:52.940Z,0
2016-10-26T07:08:06.526Z,0
2016-10-26T07:09:20.092Z,0
2016-10-26T07:10:33.753Z,0
2016-10-26T07:11:47.320Z,0
2016-10-26T07:13:00.459Z,0
2016-10-26T07:14:13.486Z,0
2016-10-26T07:15:26.579Z,0
2016-10-26T07:16:40.175Z,0
2016-10-26T07:17:53.695Z,0
2016-10-26T07:19:07.337Z,0
2016-10-26T07:20:20.424Z,0
2016-10-26T07:21:34.019Z,0
2016-10-26T07:22:47.104Z,0
2016-10-26T07:24:00.673Z,0
2016-10-26T07:25:14.243Z,0
2016-10-26T07:26:27.814Z,0
2016-10-26T07:27:41.441Z,0
2016-10-26T07:28:54.526Z,0
2016-10-26T07:30:08.207Z,0
2016-10-26T07:31:22.045Z,0
2016-10-26T07:32:35.616Z,0
2016-10-26T07:33:49.211Z,0
2016-10-26T07:35:02.777Z,0
2016-10-26T07:36:15.835Z,0
2016-10-26T07:37:28.880Z,0
2016-10-26T07:38:42.475Z,0
2016-10-26T07:39:56.122Z,0
2016-10-26T07:41:09.217Z,0
2016-10-26T07:42:22.809Z,0
2016-10-26T07:43:36.373Z,0
2016-10-26T07:44:49.676Z,0
2016-10-26T07:46:03.178Z,0
2016-10-26T07:47:16.228Z,0
2016-10-26T07:48:29.772Z,0
2016-10-26T07:49:43.334Z,0
2016-10-26T07:50:56.961Z,0
2016-10-26T07:52:10.588Z,0
2016-10-26T07:53:24.611Z,0
2016-10-26T07:54:36.879Z,0
2016-10-26T07:55:50.491Z,0
2016-10-26T07:57:03.096Z,0
2016-10-26T07:58:16.340Z,0
2016-10-26T07:59:29.418Z,0
2016-10-26T08:00:42.463Z,0
2016-10-26T08:01:56.100Z,0
2016-10-26T08:03:08.568Z,0
2016-10-26T08:04:22.138Z,0
2016-10-26T08:05:35.745Z,0
2016-10-26T08:06:49.293Z,0
2016-10-26T08:08:02.859Z,0
2016-10-26T08:09:16.505Z,0
2016-10-26T08:10:29.983Z,0
2016-10-26T08:11:43.558Z,0
2016-10-26T08:12:56.657Z,4
2016-10-26T08:14:10.191Z,0
2016-10-26T08:15:23.783Z,0
2016-10-26T08:16:37.332Z,0
2016-10-26T08:17:50.389Z,4
2016-10-26T08:19:03.320Z,4
2016-10-26T08:20:16.810Z,4
2016-10-26T08:21:29.847Z,8
2016-10-26T08:22:42.854Z,8
2016-10-26T08:23:56.410Z,8
2016-10-26T08:25:09.664Z,8
2016-10-26T08:26:23.230Z,12
2016-10-26T08:27:36.748Z,16
2016-10-26T08:28:50.309Z,20
2016-10-26T08:30:03.369Z,24
2016-10-26T08:31:16.906Z,32
2016-10-26T08:32:30.421Z,32
2016-10-26T08:33:43.981Z,40
2016-10-26T08:34:57.724Z,44
2016-10-26T08:36:10.758Z,44
2016-10-26T08:37:24.645Z,48
2016-10-26T08:38:38.183Z,52
2016-10-26T08:39:51.707Z,60
2016-10-26T08:41:05.267Z,68
2016-10-26T08:42:18.812Z,72
2016-10-26T08:43:32.399Z,80
2016-10-26T08:44:46.039Z,80
2016-10-26T08:45:59.578Z,84
2016-10-26T08:47:12.625Z,88
2016-10-26T08:48:25.669Z,92
2016-10-26T08:49:39.029Z,100
2016-10-26T08:50:52.028Z,104
2016-10-26T08:52:05.325Z,116
2016-10-26T08:53:18.405Z,128
2016-10-26T08:54:31.432Z,136
2016-10-26T08:55:44.497Z,152
2016-10-26T08:56:58.129Z,160
2016-10-26T08:58:11.697Z,176
2016-10-26T08:59:24.718Z,192
2016-10-26T09:00:38.115Z,204
2016-10-26T09:01:50.697Z,220
2016-10-26T09:03:04.297Z,232
2016-10-26T09:04:17.860Z,244
2016-10-26T09:05:30.896Z,252
2016-10-26T09:06:44.479Z,268
2016-10-26T09:07:57.527Z,288
2016-10-26T09:09:10.064Z,300
2016-10-26T09:10:23.588Z,312
2016-10-26T09:11:37.214Z,324
2016-10-26T09:12:50.765Z,328
2016-10-26T09:14:04.386Z,332
2016-10-26T09:15:17.985Z,332
2016-10-26T09:16:31.329Z,328
2016-10-26T09:17:44.642Z,328
2016-10-26T09:18:57.216Z,336
2016-10-26T09:20:10.288Z,344
2016-10-26T09:21:23.813Z,352
2016-10-26T09:22:36.893Z,356
2016-10-26T09:23:49.963Z,356
2016-10-26T09:25:03.841Z,356
2016-10-26T09:26:17.404Z,360
2016-10-26T09:27:30.690Z,364
2016-10-26T09:28:44.278Z,372
2016-10-26T09:29:57.585Z,384
2016-10-26T09:31:11.094Z,400
2016-10-26T09:32:24.669Z,424
2016-10-26T09:33:37.741Z,444
2016-10-26T09:34:50.869Z,468
2016-10-26T09:36:04.459Z,492
2016-10-26T09:37:18.135Z,508
2016-10-26T09:38:31.945Z,524
2016-10-26T09:39:45.533Z,540
2016-10-26T09:40:58.525Z,552
2016-10-26T09:42:12.095Z,556
2016-10-26T09:43:25.604Z,564
2016-10-26T09:44:39.155Z,572
2016-10-26T09:45:52.721Z,576
2016-10-26T09:47:05.776Z,576
2016-10-26T09:48:18.813Z,576
2016-10-26T09:49:32.386Z,580
2016-10-26T09:50:45.927Z,588
2016-10-26T09:51:58.984Z,596
2016-10-26T09:53:12.597Z,608
2016-10-26T09:54:26.199Z,624
2016-10-26T09:55:39.724Z,640
2016-10-26T09:56:52.759Z,652
2016-10-26T09:58:05.847Z,672
2016-10-26T09:59:18.340Z,692
2016-10-26T10:00:31.957Z,720
2016-10-26T10:01:45.560Z,748
2016-10-26T10:02:58.606Z,780
2016-10-26T10:04:11.152Z,812
2016-10-26T10:05:24.556Z,844
2016-10-26T10:06:38.135Z,884
2016-10-26T10:07:51.735Z,924
2016-10-26T10:09:05.349Z,964
2016-10-26T10:10:18.897Z,1000
2016-10-26T10:11:32.471Z,1024
2016-10-26T10:12:45.449Z,1036
2016-10-26T10:13:57.943Z,1040
2016-10-26T10:15:11.537Z,1040
2016-10-26T10:16:24.596Z,1036
2016-10-26T10:17:37.120Z,1040
2016-10-26T10:18:50.239Z,1036
2016-10-26T10:20:03.298Z,1036
2016-10-26T10:21:16.073Z,1036
2016-10-26T10:22:29.572Z,1028
2016-10-26T10:23:43.204Z,1020
2016-10-26T10:24:56.849Z,1016
2016-10-26T10:26:10.454Z,1008
2016-10-26T10:27:24.054Z,1004
2016-10-26T10:28:37.649Z,1016
2016-10-26T10:29:50.391Z,1024
2016-10-26T10:31:03.405Z,1044
2016-10-26T10:32:17.003Z,1060
2016-10-26T10:33:30.872Z,1072
2016-10-26T10:34:44.443Z,1080
2016-10-26T10:35:57.866Z,1068
2016-10-26T10:37:11.419Z,1052
2016-10-26T10:38:24.641Z,1004
2016-10-26T10:39:38.272Z,968
2016-10-26T10:40:51.839Z,924
2016-10-26T10:42:05.456Z,888
2016-10-26T10:43:17.989Z,876
2016-10-26T10:44:31.033Z,856
2016-10-26T10:45:44.699Z,796
2016-10-26T10:46:58.307Z,780
2016-10-26T10:48:11.859Z,792
2016-10-26T10:49:25.380Z,816
2016-10-26T10:50:39.029Z,796
2016-10-26T10:51:52.592Z,776
2016-10-26T10:53:06.130Z,748
2016-10-26T10:54:19.409Z,732
2016-10-26T10:55:33.163Z,716
2016-10-26T10:56:46.782Z,700
2016-10-26T10:58:00.333Z,692
2016-10-26T10:59:13.918Z,680
2016-10-26T11:00:27.184Z,660
2016-10-26T11:01:40.230Z,656
2016-10-26T11:02:53.751Z,652
2016-10-26T11:04:07.342Z,660
2016-10-26T11:05:20.121Z,692
2016-10-26T11:06:32.609Z,704
2016-10-26T11:07:46.162Z,732
2016-10-26T11:08:59.791Z,752
2016-10-26T11:10:12.778Z,756
2016-10-26T11:11:26.392Z,744
2016-10-26T11:12:39.962Z,728
2016-10-26T11:13:52.471Z,736
2016-10-26T11:15:06.079Z,776
2016-10-26T11:16:19.120Z,812
2016-10-26T11:17:32.679Z,872
2016-10-26T11:18:46.206Z,916
2016-10-26T11:19:59.779Z,940
2016-10-26T11:21:13.345Z,984
2016-10-26T11:22:27.235Z,1024
2016-10-26T11:23:40.870Z,1072
2016-10-26T11:24:54.667Z,1088
2016-10-26T11:26:07.695Z,1124
2016-10-26T11:27:21.601Z,1148
2016-10-26T11:28:34.093Z,1156
2016-10-26T11:29:47.108Z,1192
2016-10-26T11:31:00.905Z,1228
2016-10-26T11:32:13.913Z,1284
2016-10-26T11:33:27.728Z,1348
2016-10-26T11:34:41.368Z,1440
2016-10-26T11:35:54.968Z,1564
2016-10-26T11:37:08.084Z,1696
2016-10-26T11:38:21.672Z,1812
2016-10-26T11:39:34.701Z,1896
2016-10-26T11:40:48.271Z,1960
2016-10-26T11:42:02.034Z,1984
2016-10-26T11:43:15.649Z,1940
2016-10-26T11:44:29.143Z,2008
2016-10-26T11:45:42.778Z,2036
2016-10-26T11:46:56.312Z,2104
2016-10-26T11:48:09.959Z,2116
2016-10-26T11:49:23.532Z,2176
2016-10-26T11:50:36.580Z,2184
2016-10-26T11:51:49.326Z,2136
2016-10-26T11:53:02.347Z,1676
2016-10-26T11:54:15.993Z,1632
2016-10-26T11:55:29.556Z,1624
2016-10-26T11:56:43.096Z,1344
2016-10-26T11:57:56.713Z,1472
2016-10-26T11:59:09.503Z,1780
2016-10-26T12:00:23.112Z,1872
2016-10-26T12:01:36.676Z,1788
2016-10-26T12:02:50.246Z,1764
2016-10-26T12:04:03.866Z,1912
2016-10-26T12:05:17.435Z,1572
2016-10-26T12:06:31.009Z,1724
2016-10-26T12:07:44.023Z,2384
2016-10-26T12:08:57.801Z,2560
2016-10-26T12:10:10.846Z,2600
2016-10-26T12:11:24.749Z,2828
2016-10-26T12:12:37.817Z,2996
2016-10-26T12:13:51.658Z,2996
2016-10-26T12:15:04.757Z,3132
2016-10-26T12:16:18.326Z,3308
2016-10-26T12:17:31.548Z,3452
2016-10-26T12:18:44.579Z,3540
2016-10-26T12:19:58.181Z,3620
2016-10-26T12:21:11.269Z,3528
2016-10-26T12:22:24.828Z,3576
2016-10-26T12:23:37.933Z,3728
2016-10-26T12:24:50.935Z,3580
2016-10-26T12:26:04.506Z,3512
2016-10-26T12:27:17.800Z,3440
2016-10-26T12:28:31.488Z,3184
2016-10-26T12:29:45.140Z,2320
2016-10-26T12:30:58.770Z,3208
2016-10-26T12:32:12.346Z,3340
2016-10-26T12:33:25.940Z,3964
2016-10-26T12:34:39.494Z,3588
2016-10-26T12:35:52.635Z,3280
2016-10-26T12:37:05.713Z,3328
2016-10-26T12:38:18.777Z,2860
2016-10-26T12:39:32.164Z,2732
2016-10-26T12:40:45.703Z,3044
2016-10-26T12:41:59.280Z,4276
2016-10-26T12:43:12.883Z,4316
2016-10-26T12:44:25.880Z,4164
2016-10-26T12:45:38.948Z,4432
2016-10-26T12:46:51.978Z,4516
2016-10-26T12:48:05.650Z,4776
2016-10-26T12:49:19.226Z,4784
2016-10-26T12:50:32.277Z,4760
2016-10-26T12:51:45.934Z,5252
2016-10-26T12:52:59.510Z,5284
2016-10-26T12:54:13.067Z,5064
2016-10-26T12:55:26.196Z,5116
2016-10-26T12:56:39.751Z,5320
2016-10-26T12:57:52.844Z,5632
2016-10-26T12:59:06.407Z,6104
2016-10-26T13:00:19.401Z,6016
2016-10-26T13:01:32.997Z,5456
2016-10-26T13:02:45.555Z,5588
2016-10-26T13:03:58.593Z,6012
2016-10-26T13:05:11.678Z,6536
2016-10-26T13:06:25.310Z,6264
2016-10-26T13:07:37.926Z,6444
2016-10-26T13:08:51.654Z,5140
2016-10-26T13:10:05.297Z,4184
2016-10-26T13:11:18.891Z,4584
2016-10-26T13:12:32.432Z,4860
2016-10-26T13:13:45.506Z,4812
2016-10-26T13:14:59.024Z,5208
2016-10-26T13:16:12.610Z,4140
2016-10-26T13:17:26.206Z,3944
2016-10-26T13:18:39.915Z,3736
2016-10-26T13:19:53.201Z,3824
2016-10-26T13:21:06.865Z,4352
2016-10-26T13:22:20.362Z,3712
2016-10-26T13:23:33.392Z,3756
2016-10-26T13:24:47.014Z,3620
2016-10-26T13:26:01.048Z,3656
2016-10-26T13:27:14.615Z,3880
2016-10-26T13:28:28.323Z,3684
2016-10-26T13:29:41.981Z,3572
2016-10-26T13:30:55.600Z,3412
2016-10-26T13:32:09.181Z,3656
2016-10-26T13:33:22.210Z,3940
2016-10-26T13:34:35.504Z,3680
2016-10-26T13:35:48.539Z,4100
2016-10-26T13:37:01.652Z,3948
2016-10-26T13:38:14.784Z,3504
2016-10-26T13:39:27.803Z,3580
2016-10-26T13:40:41.353Z,3460
2016-10-26T13:41:54.600Z,3300
2016-10-26T13:43:08.204Z,3260
2016-10-26T13:44:21.229Z,3260
2016-10-26T13:45:35.152Z,3276
2016-10-26T13:46:48.725Z,3236
2016-10-26T13:48:01.794Z,3040
2016-10-26T13:49:14.347Z,2976
2016-10-26T13:50:27.941Z,2932
2016-10-26T13:51:41.581Z,2800
2016-10-26T13:52:54.744Z,2648
2016-10-26T13:54:08.319Z,2464
2016-10-26T13:55:21.904Z,2220
2016-10-26T13:56:35.476Z,1940
2016-10-26T13:57:48.300Z,1748
2016-10-26T13:59:01.335Z,1644
2016-10-26T14:00:14.920Z,1592
2016-10-26T14:01:28.520Z,1604
2016-10-26T14:02:42.116Z,1664
2016-10-26T14:03:55.173Z,1720
2016-10-26T14:05:08.239Z,1804
2016-10-26T14:06:21.860Z,1896
2016-10-26T14:07:35.485Z,2036
2016-10-26T14:08:49.060Z,2212
2016-10-26T14:10:02.692Z,2436
2016-10-26T14:11:15.744Z,2724
2016-10-26T14:12:29.423Z,3028
2016-10-26T14:13:42.481Z,3352
2016-10-26T14:14:56.084Z,3716
2016-10-26T14:16:09.073Z,4108
2016-10-26T14:17:22.630Z,6512
2016-10-26T14:18:35.702Z,3760
2016-10-26T14:19:49.319Z,3712
2016-10-26T14:21:02.937Z,2984
2016-10-26T14:22:16.539Z,2872
2016-10-26T14:23:29.863Z,2996
2016-10-26T14:24:43.477Z,3360
2016-10-26T14:25:57.725Z,4000
2016-10-26T14:27:11.317Z,4928
2016-10-26T14:28:24.906Z,4484
2016-10-26T14:29:38.467Z,4676
2016-10-26T14:30:52.095Z,5524
2016-10-26T14:32:05.738Z,4844
2016-10-26T14:33:19.336Z,4612
2016-10-26T14:34:32.875Z,4520
2016-10-26T14:35:46.454Z,4488
2016-10-26T14:37:00.065Z,4648
2016-10-26T14:38:13.122Z,5048
2016-10-26T14:39:26.900Z,8144
2016-10-26T14:40:40.430Z,8412
2016-10-26T14:41:54.070Z,7820
2016-10-26T14:43:07.667Z,7832
2016-10-26T14:44:20.721Z,7884
2016-10-26T14:45:34.270Z,7116
2016-10-26T14:46:47.283Z,6208
2016-10-26T14:48:00.260Z,5716
2016-10-26T14:49:13.831Z,5008
2016-10-26T14:50:26.337Z,4636
2016-10-26T14:51:39.941Z,3440
2016-10-26T14:52:53.616Z,3452
2016-10-26T14:54:07.235Z,3108
2016-10-26T14:55:20.770Z,3044
2016-10-26T14:56:34.051Z,3088
2016-10-26T14:57:47.180Z,3308
2016-10-26T14:59:00.989Z,3472
2016-10-26T15:00:13.939Z,3444
2016-10-26T15:01:27.747Z,3344
2016-10-26T15:02:41.359Z,3248
2016-10-26T15:03:54.946Z,3172
2016-10-26T15:05:07.928Z,3136
2016-10-26T15:06:21.209Z,3120
2016-10-26T15:07:34.291Z,3120
2016-10-26T15:08:46.285Z,3284
2016-10-26T15:09:59.856Z,3460
2016-10-26T15:11:13.441Z,3996
2016-10-26T15:12:25.390Z,4860
2016-10-26T15:13:38.971Z,4692
2016-10-26T15:14:52.561Z,4484
2016-10-26T15:16:05.352Z,5088
2016-10-26T15:17:18.676Z,10300
2016-10-26T15:18:32.281Z,6484
2016-10-26T15:19:45.852Z,6528
2016-10-26T15:20:58.565Z,7236
2016-10-26T15:22:11.562Z,7332
2016-10-26T15:23:25.172Z,8836
2016-10-26T15:24:38.792Z,8568
2016-10-26T15:25:52.381Z,8816
2016-10-26T15:27:05.471Z,5704
2016-10-26T15:28:19.113Z,6152
2016-10-26T15:29:32.720Z,5396
2016-10-26T15:30:45.750Z,7480
2016-10-26T15:31:59.022Z,6080
2016-10-26T15:33:12.571Z,6840
2016-10-26T15:34:25.700Z,7672
2016-10-26T15:35:38.776Z,9184
2016-10-26T15:36:52.311Z,5972
2016-10-26T15:38:05.972Z,4344
2016-10-26T15:39:19.571Z,4824
2016-10-26T15:40:32.087Z,6756
2016-10-26T15:41:45.741Z,9488
2016-10-26T15:42:59.309Z,5884
2016-10-26T15:44:12.321Z,8136
2016-10-26T15:45:25.876Z,8412
2016-10-26T15:46:39.485Z,6184
2016-10-26T15:47:52.532Z,7816
2016-10-26T15:49:06.181Z,9144
2016-10-26T15:50:19.721Z,7776
2016-10-26T15:51:33.332Z,9940
2016-10-26T15:52:46.912Z,8176
2016-10-26T15:54:00.458Z,8144
2016-10-26T15:55:13.033Z,9928
2016-10-26T15:56:26.641Z,10572
2016-10-26T15:57:40.236Z,11504
2016-10-26T15:58:53.314Z,11344
2016-10-26T16:00:06.322Z,10240
2016-10-26T16:01:19.922Z,8460
2016-10-26T16:02:33.539Z,9484
2016-10-26T16:03:47.189Z,9936
2016-10-26T16:05:01.096Z,10476
2016-10-26T16:06:13.608Z,10820
2016-10-26T16:07:27.136Z,10972
2016-10-26T16:08:40.738Z,10804
2016-10-26T16:09:53.687Z,10884
2016-10-26T16:11:06.753Z,10540
2016-10-26T16:12:19.788Z,11012
2016-10-26T16:13:33.325Z,8708
2016-10-26T16:14:46.350Z,9528
2016-10-26T16:15:59.525Z,5564
2016-10-26T16:17:12.998Z,10128
2016-10-26T16:18:26.590Z,10232
2016-10-26T16:19:40.239Z,9600
2016-10-26T16:20:53.819Z,9272
2016-10-26T16:22:07.334Z,9268
2016-10-26T16:23:20.913Z,7908
2016-10-26T16:24:33.978Z,8628
2016-10-26T16:25:47.324Z,8568
2016-10-26T16:27:00.317Z,7484
2016-10-26T16:28:13.378Z,7320
2016-10-26T16:29:26.910Z,6744
2016-10-26T16:30:40.469Z,7200
2016-10-26T16:31:54.068Z,7832
2016-10-26T16:33:07.152Z,7856
2016-10-26T16:34:20.815Z,7524
2016-10-26T16:35:33.863Z,6376
2016-10-26T16:36:47.441Z,8724
2016-10-26T16:38:01.238Z,8396
2016-10-26T16:39:13.793Z,8336
2016-10-26T16:40:27.399Z,7900
2016-10-26T16:41:40.992Z,8628
2016-10-26T16:42:54.970Z,6572
2016-10-26T16:44:08.540Z,8464
2016-10-26T16:45:22.109Z,6860
2016-10-26T16:46:35.743Z,6264
2016-10-26T16:47:48.824Z,6664
2016-10-26T16:49:02.365Z,6852
2016-10-26T16:50:15.927Z,7388
2016-10-26T16:51:29.488Z,6652
2016-10-26T16:52:43.056Z,4568
2016-10-26T16:53:56.619Z,4148
2016-10-26T16:55:10.246Z,4932
2016-10-26T16:56:23.803Z,3444
2016-10-26T16:57:37.059Z,3396
2016-10-26T16:58:50.123Z,4120
2016-10-26T17:00:03.627Z,3692
2016-10-26T17:01:16.918Z,4444
2016-10-26T17:02:30.053Z,5192
2016-10-26T17:03:43.181Z,5580
2016-10-26T17:04:56.792Z,5328
2016-10-26T17:06:09.909Z,5668
2016-10-26T17:07:23.016Z,7624
2016-10-26T17:08:36.115Z,5464
2016-10-26T17:09:49.747Z,4784
2016-10-26T17:11:02.333Z,4332
2016-10-26T17:12:15.921Z,6916